sensor_id;sensor_type;location;lat;lon;timestamp;P1;durP1;ratioP1;P2;durP2;ratioP2
63157;SDS011;49381;49.338;8.794;2022-11-20T00:00:25;17.90;;;9.23;;
63157;SDS011;49381;49.338;8.794;2022-11-20T00:02:25;14.05;;;7.95;;
63157;SDS011;49381;49.338;8.794;2022-11-20T00:04:26;16.75;;;8.63;;
63157;SDS011;49381;49.338;8.794;2022-11-20T00:06:28;16.20;;;8.30;;
63157;SDS011;49381;49.338;8.794;2022-11-20T00:08:28;18.00;;;9.75;;
63157;SDS011;49381;49.338;8.794;2022-11-20T00:10:29;14.35;;;8.02;;
63157;SDS011;49381;49.338;8.794;2022-11-20T00:12:29;17.10;;;8.43;;
63157;SDS011;49381;49.338;8.794;2022-11-20T00:14:29;15.65;;;8.25;;
63157;SDS011;49381;49.338;8.794;2022-11-20T00:16:30;16.60;;;8.25;;
63157;SDS011;49381;49.338;8.794;2022-11-20T00:18:32;15.63;;;8.23;;
63157;SDS011;49381;49.338;8.794;2022-11-20T00:20:33;20.58;;;8.70;;
63157;SDS011;49381;49.338;8.794;2022-11-20T00:22:35;17.33;;;9.15;;
63157;SDS011;49381;49.338;8.794;2022-11-20T00:24:35;13.55;;;7.85;;
63157;SDS011;49381;49.338;8.794;2022-11-20T00:26:35;17.92;;;9.10;;
63157;SDS011;49381;49.338;8.794;2022-11-20T00:28:36;17.55;;;8.60;;
63157;SDS011;49381;49.338;8.794;2022-11-20T00:30:37;15.70;;;8.40;;
63157;SDS011;49381;49.338;8.794;2022-11-20T00:32:37;14.88;;;8.02;;
63157;SDS011;49381;49.338;8.794;2022-11-20T00:34:37;17.70;;;9.02;;
63157;SDS011;49381;49.338;8.794;2022-11-20T00:36:38;16.33;;;8.45;;
63157;SDS011;49381;49.338;8.794;2022-11-20T00:38:39;15.00;;;7.47;;
63157;SDS011;49381;49.338;8.794;2022-11-20T00:40:40;16.73;;;8.13;;
63157;SDS011;49381;49.338;8.794;2022-11-20T00:42:40;14.88;;;8.55;;
63157;SDS011;49381;49.338;8.794;2022-11-20T00:44:40;16.42;;;8.50;;
63157;SDS011;49381;49.338;8.794;2022-11-20T00:46:41;16.85;;;8.75;;
63157;SDS011;49381;49.338;8.794;2022-11-20T00:48:41;17.05;;;8.85;;
63157;SDS011;49381;49.338;8.794;2022-11-20T00:50:42;15.50;;;8.82;;
63157;SDS011;49381;49.338;8.794;2022-11-20T00:52:42;15.20;;;8.05;;
63157;SDS011;49381;49.338;8.794;2022-11-20T00:54:44;15.60;;;7.20;;
63157;SDS011;49381;49.338;8.794;2022-11-20T00:56:44;15.40;;;8.32;;
63157;SDS011;49381;49.338;8.794;2022-11-20T00:58:45;17.13;;;8.50;;
63157;SDS011;49381;49.338;8.794;2022-11-20T01:00:46;17.48;;;8.57;;
63157;SDS011;49381;49.338;8.794;2022-11-20T01:02:47;13.75;;;7.55;;
63157;SDS011;49381;49.338;8.794;2022-11-20T01:04:47;17.15;;;9.18;;
63157;SDS011;49381;49.338;8.794;2022-11-20T01:06:47;15.57;;;8.27;;
63157;SDS011;49381;49.338;8.794;2022-11-20T01:08:48;15.52;;;8.73;;
63157;SDS011;49381;49.338;8.794;2022-11-20T01:10:51;19.63;;;9.45;;
63157;SDS011;49381;49.338;8.794;2022-11-20T01:12:51;18.00;;;9.25;;
63157;SDS011;49381;49.338;8.794;2022-11-20T01:14:52;15.23;;;8.68;;
63157;SDS011;49381;49.338;8.794;2022-11-20T01:16:52;15.15;;;8.02;;
63157;SDS011;49381;49.338;8.794;2022-11-20T01:18:53;12.88;;;7.80;;
63157;SDS011;49381;49.338;8.794;2022-11-20T01:20:59;15.10;;;8.48;;
63157;SDS011;49381;49.338;8.794;2022-11-20T01:23:00;15.15;;;8.43;;
63157;SDS011;49381;49.338;8.794;2022-11-20T01:25:00;17.08;;;8.95;;
63157;SDS011;49381;49.338;8.794;2022-11-20T01:27:02;14.80;;;8.10;;
63157;SDS011;49381;49.338;8.794;2022-11-20T01:29:03;18.10;;;8.77;;
63157;SDS011;49381;49.338;8.794;2022-11-20T01:31:10;15.95;;;8.57;;
63157;SDS011;49381;49.338;8.794;2022-11-20T01:33:11;15.30;;;8.18;;
63157;SDS011;49381;49.338;8.794;2022-11-20T01:35:12;16.50;;;9.10;;
63157;SDS011;49381;49.338;8.794;2022-11-20T01:37:12;17.77;;;8.80;;
63157;SDS011;49381;49.338;8.794;2022-11-20T01:39:13;14.98;;;8.07;;
63157;SDS011;49381;49.338;8.794;2022-11-20T01:41:15;18.65;;;9.70;;
63157;SDS011;49381;49.338;8.794;2022-11-20T01:43:18;17.52;;;8.82;;
63157;SDS011;49381;49.338;8.794;2022-11-20T01:47:56;14.95;;;8.18;;
63157;SDS011;49381;49.338;8.794;2022-11-20T01:49:58;17.25;;;9.05;;
63157;SDS011;49381;49.338;8.794;2022-11-20T01:52:02;19.30;;;9.70;;
63157;SDS011;49381;49.338;8.794;2022-11-20T01:54:05;17.35;;;9.07;;
63157;SDS011;49381;49.338;8.794;2022-11-20T01:56:09;16.50;;;8.55;;
63157;SDS011;49381;49.338;8.794;2022-11-20T01:58:11;17.63;;;9.70;;
63157;SDS011;49381;49.338;8.794;2022-11-20T02:00:15;16.27;;;8.38;;
63157;SDS011;49381;49.338;8.794;2022-11-20T02:02:17;19.33;;;10.25;;
63157;SDS011;49381;49.338;8.794;2022-11-20T02:04:17;17.92;;;9.23;;
63157;SDS011;49381;49.338;8.794;2022-11-20T02:06:19;17.65;;;9.20;;
63157;SDS011;49381;49.338;8.794;2022-11-20T02:08:24;17.92;;;9.52;;
63157;SDS011;49381;49.338;8.794;2022-11-20T02:10:24;17.98;;;9.63;;
63157;SDS011;49381;49.338;8.794;2022-11-20T02:12:26;15.32;;;8.02;;
63157;SDS011;49381;49.338;8.794;2022-11-20T02:14:27;15.32;;;8.75;;
63157;SDS011;49381;49.338;8.794;2022-11-20T02:16:30;16.08;;;8.60;;
63157;SDS011;49381;49.338;8.794;2022-11-20T02:18:34;16.88;;;8.90;;
63157;SDS011;49381;49.338;8.794;2022-11-20T02:20:34;15.57;;;9.07;;
63157;SDS011;49381;49.338;8.794;2022-11-20T02:22:35;19.67;;;9.95;;
63157;SDS011;49381;49.338;8.794;2022-11-20T02:24:44;19.95;;;9.18;;
63157;SDS011;49381;49.338;8.794;2022-11-20T02:26:47;17.55;;;9.27;;
63157;SDS011;49381;49.338;8.794;2022-11-20T02:28:51;18.08;;;8.60;;
63157;SDS011;49381;49.338;8.794;2022-11-20T02:30:52;20.90;;;9.68;;
63157;SDS011;49381;49.338;8.794;2022-11-20T02:32:52;16.70;;;8.85;;
63157;SDS011;49381;49.338;8.794;2022-11-20T02:34:52;16.90;;;8.85;;
63157;SDS011;49381;49.338;8.794;2022-11-20T02:36:53;17.17;;;9.73;;
63157;SDS011;49381;49.338;8.794;2022-11-20T02:38:53;18.48;;;10.00;;
63157;SDS011;49381;49.338;8.794;2022-11-20T02:40:55;17.75;;;9.82;;
63157;SDS011;49381;49.338;8.794;2022-11-20T02:42:56;19.13;;;9.50;;
63157;SDS011;49381;49.338;8.794;2022-11-20T02:44:56;18.23;;;8.50;;
63157;SDS011;49381;49.338;8.794;2022-11-20T02:46:57;19.25;;;8.95;;
63157;SDS011;49381;49.338;8.794;2022-11-20T02:48:57;17.40;;;8.88;;
63157;SDS011;49381;49.338;8.794;2022-11-20T02:50:57;16.83;;;8.77;;
63157;SDS011;49381;49.338;8.794;2022-11-20T02:52:58;17.08;;;9.05;;
63157;SDS011;49381;49.338;8.794;2022-11-20T02:54:58;17.92;;;9.60;;
63157;SDS011;49381;49.338;8.794;2022-11-20T02:57:00;19.95;;;10.07;;
63157;SDS011;49381;49.338;8.794;2022-11-20T02:59:00;18.17;;;9.57;;
63157;SDS011;49381;49.338;8.794;2022-11-20T03:01:00;21.38;;;10.13;;
63157;SDS011;49381;49.338;8.794;2022-11-20T03:03:01;19.35;;;9.57;;
63157;SDS011;49381;49.338;8.794;2022-11-20T03:05:01;20.27;;;10.25;;
63157;SDS011;49381;49.338;8.794;2022-11-20T03:07:02;19.75;;;10.10;;
63157;SDS011;49381;49.338;8.794;2022-11-20T03:09:02;18.08;;;8.65;;
63157;SDS011;49381;49.338;8.794;2022-11-20T03:11:03;24.23;;;9.52;;
63157;SDS011;49381;49.338;8.794;2022-11-20T03:13:06;18.77;;;9.27;;
63157;SDS011;49381;49.338;8.794;2022-11-20T03:15:07;18.35;;;9.23;;
63157;SDS011;49381;49.338;8.794;2022-11-20T03:17:08;18.10;;;9.27;;
63157;SDS011;49381;49.338;8.794;2022-11-20T03:19:11;22.25;;;10.68;;
63157;SDS011;49381;49.338;8.794;2022-11-20T03:21:12;19.33;;;10.27;;
63157;SDS011;49381;49.338;8.794;2022-11-20T03:23:14;17.10;;;9.23;;
63157;SDS011;49381;49.338;8.794;2022-11-20T03:25:14;16.88;;;8.95;;
63157;SDS011;49381;49.338;8.794;2022-11-20T03:27:14;19.38;;;9.98;;
63157;SDS011;49381;49.338;8.794;2022-11-20T03:29:16;16.52;;;8.52;;
63157;SDS011;49381;49.338;8.794;2022-11-20T03:31:17;21.05;;;10.13;;
63157;SDS011;49381;49.338;8.794;2022-11-20T03:33:19;17.55;;;9.50;;
63157;SDS011;49381;49.338;8.794;2022-11-20T03:35:19;19.40;;;9.82;;
63157;SDS011;49381;49.338;8.794;2022-11-20T03:37:19;19.75;;;8.50;;
63157;SDS011;49381;49.338;8.794;2022-11-20T03:39:20;18.23;;;9.13;;
63157;SDS011;49381;49.338;8.794;2022-11-20T03:41:21;19.85;;;9.60;;
63157;SDS011;49381;49.338;8.794;2022-11-20T03:43:22;18.63;;;8.75;;
63157;SDS011;49381;49.338;8.794;2022-11-20T03:45:24;18.65;;;9.75;;
63157;SDS011;49381;49.338;8.794;2022-11-20T03:47:24;19.63;;;10.05;;
63157;SDS011;49381;49.338;8.794;2022-11-20T03:49:25;19.02;;;8.93;;
63157;SDS011;49381;49.338;8.794;2022-11-20T03:51:25;20.77;;;8.70;;
63157;SDS011;49381;49.338;8.794;2022-11-20T03:53:27;18.45;;;9.10;;
63157;SDS011;49381;49.338;8.794;2022-11-20T03:55:27;18.92;;;8.65;;
63157;SDS011;49381;49.338;8.794;2022-11-20T03:57:27;23.33;;;10.27;;
63157;SDS011;49381;49.338;8.794;2022-11-20T03:59:28;20.63;;;9.27;;
63157;SDS011;49381;49.338;8.794;2022-11-20T04:01:30;22.90;;;10.57;;
63157;SDS011;49381;49.338;8.794;2022-11-20T04:03:32;22.77;;;10.38;;
63157;SDS011;49381;49.338;8.794;2022-11-20T04:05:32;20.95;;;9.60;;
63157;SDS011;49381;49.338;8.794;2022-11-20T04:07:33;17.60;;;8.55;;
63157;SDS011;49381;49.338;8.794;2022-11-20T04:09:34;19.90;;;9.10;;
63157;SDS011;49381;49.338;8.794;2022-11-20T04:11:35;20.02;;;10.23;;
63157;SDS011;49381;49.338;8.794;2022-11-20T04:13:36;21.23;;;9.50;;
63157;SDS011;49381;49.338;8.794;2022-11-20T04:15:37;20.60;;;9.40;;
63157;SDS011;49381;49.338;8.794;2022-11-20T04:17:39;21.77;;;9.70;;
63157;SDS011;49381;49.338;8.794;2022-11-20T04:19:39;23.38;;;9.60;;
63157;SDS011;49381;49.338;8.794;2022-11-20T04:21:39;22.17;;;10.05;;
63157;SDS011;49381;49.338;8.794;2022-11-20T04:23:40;18.92;;;8.75;;
63157;SDS011;49381;49.338;8.794;2022-11-20T04:25:40;19.95;;;10.13;;
63157;SDS011;49381;49.338;8.794;2022-11-20T04:27:40;20.95;;;10.23;;
63157;SDS011;49381;49.338;8.794;2022-11-20T04:29:41;21.27;;;9.65;;
63157;SDS011;49381;49.338;8.794;2022-11-20T04:31:41;20.33;;;9.90;;
63157;SDS011;49381;49.338;8.794;2022-11-20T04:33:43;21.42;;;9.65;;
63157;SDS011;49381;49.338;8.794;2022-11-20T04:35:43;18.77;;;9.00;;
63157;SDS011;49381;49.338;8.794;2022-11-20T04:37:47;20.92;;;9.52;;
63157;SDS011;49381;49.338;8.794;2022-11-20T04:39:47;17.73;;;8.60;;
63157;SDS011;49381;49.338;8.794;2022-11-20T04:41:47;19.48;;;9.88;;
63157;SDS011;49381;49.338;8.794;2022-11-20T04:43:48;21.92;;;10.13;;
63157;SDS011;49381;49.338;8.794;2022-11-20T04:45:50;18.30;;;9.20;;
63157;SDS011;49381;49.338;8.794;2022-11-20T04:47:50;20.85;;;9.43;;
63157;SDS011;49381;49.338;8.794;2022-11-20T04:49:52;18.15;;;8.13;;
63157;SDS011;49381;49.338;8.794;2022-11-20T04:51:52;17.35;;;8.85;;
63157;SDS011;49381;49.338;8.794;2022-11-20T04:53:53;15.63;;;7.90;;
63157;SDS011;49381;49.338;8.794;2022-11-20T04:55:58;16.33;;;7.88;;
63157;SDS011;49381;49.338;8.794;2022-11-20T04:57:59;16.42;;;8.18;;
63157;SDS011;49381;49.338;8.794;2022-11-20T05:00:00;18.08;;;8.20;;
63157;SDS011;49381;49.338;8.794;2022-11-20T05:02:00;16.17;;;8.45;;
63157;SDS011;49381;49.338;8.794;2022-11-20T05:04:00;14.52;;;7.30;;
63157;SDS011;49381;49.338;8.794;2022-11-20T05:06:03;15.20;;;7.93;;
63157;SDS011;49381;49.338;8.794;2022-11-20T05:08:05;14.23;;;7.03;;
63157;SDS011;49381;49.338;8.794;2022-11-20T05:10:05;17.75;;;8.38;;
63157;SDS011;49381;49.338;8.794;2022-11-20T05:12:06;16.65;;;7.72;;
63157;SDS011;49381;49.338;8.794;2022-11-20T05:14:07;15.25;;;7.88;;
63157;SDS011;49381;49.338;8.794;2022-11-20T05:16:09;14.35;;;7.80;;
63157;SDS011;49381;49.338;8.794;2022-11-20T05:18:10;14.70;;;7.03;;
63157;SDS011;49381;49.338;8.794;2022-11-20T05:20:11;16.67;;;7.68;;
63157;SDS011;49381;49.338;8.794;2022-11-20T05:22:12;15.18;;;7.97;;
63157;SDS011;49381;49.338;8.794;2022-11-20T05:24:13;14.27;;;7.75;;
63157;SDS011;49381;49.338;8.794;2022-11-20T05:26:14;18.67;;;8.88;;
63157;SDS011;49381;49.338;8.794;2022-11-20T05:28:15;15.07;;;7.07;;
63157;SDS011;49381;49.338;8.794;2022-11-20T05:30:16;12.85;;;6.85;;
63157;SDS011;49381;49.338;8.794;2022-11-20T05:32:16;12.70;;;6.10;;
63157;SDS011;49381;49.338;8.794;2022-11-20T05:34:17;14.88;;;7.07;;
63157;SDS011;49381;49.338;8.794;2022-11-20T05:36:17;11.70;;;6.68;;
63157;SDS011;49381;49.338;8.794;2022-11-20T05:38:19;16.27;;;7.53;;
63157;SDS011;49381;49.338;8.794;2022-11-20T05:40:19;11.55;;;5.85;;
63157;SDS011;49381;49.338;8.794;2022-11-20T05:42:19;13.02;;;7.45;;
63157;SDS011;49381;49.338;8.794;2022-11-20T05:44:19;11.80;;;6.47;;
63157;SDS011;49381;49.338;8.794;2022-11-20T05:46:20;13.52;;;7.47;;
63157;SDS011;49381;49.338;8.794;2022-11-20T05:48:21;13.38;;;6.90;;
63157;SDS011;49381;49.338;8.794;2022-11-20T05:50:21;11.68;;;6.57;;
63157;SDS011;49381;49.338;8.794;2022-11-20T05:52:21;14.50;;;7.25;;
63157;SDS011;49381;49.338;8.794;2022-11-20T05:54:23;13.20;;;6.63;;
63157;SDS011;49381;49.338;8.794;2022-11-20T05:56:23;12.75;;;6.93;;
63157;SDS011;49381;49.338;8.794;2022-11-20T05:58:24;14.77;;;8.07;;
63157;SDS011;49381;49.338;8.794;2022-11-20T06:00:24;12.65;;;7.57;;
63157;SDS011;49381;49.338;8.794;2022-11-20T06:02:24;16.05;;;8.48;;
63157;SDS011;49381;49.338;8.794;2022-11-20T06:04:25;14.90;;;8.75;;
63157;SDS011;49381;49.338;8.794;2022-11-20T06:06:25;14.90;;;8.32;;
63157;SDS011;49381;49.338;8.794;2022-11-20T06:08:25;14.45;;;7.90;;
63157;SDS011;49381;49.338;8.794;2022-11-20T06:10:27;17.52;;;8.57;;
63157;SDS011;49381;49.338;8.794;2022-11-20T06:12:27;14.95;;;8.55;;
63157;SDS011;49381;49.338;8.794;2022-11-20T06:14:28;16.60;;;7.85;;
63157;SDS011;49381;49.338;8.794;2022-11-20T06:16:28;14.13;;;8.05;;
63157;SDS011;49381;49.338;8.794;2022-11-20T06:18:29;15.23;;;8.63;;
63157;SDS011;49381;49.338;8.794;2022-11-20T06:20:29;13.52;;;8.52;;
63157;SDS011;49381;49.338;8.794;2022-11-20T06:22:29;14.52;;;8.15;;
63157;SDS011;49381;49.338;8.794;2022-11-20T06:24:30;15.88;;;8.20;;
63157;SDS011;49381;49.338;8.794;2022-11-20T06:26:31;14.15;;;7.32;;
63157;SDS011;49381;49.338;8.794;2022-11-20T06:28:32;16.05;;;7.93;;
63157;SDS011;49381;49.338;8.794;2022-11-20T06:30:33;19.05;;;10.27;;
63157;SDS011;49381;49.338;8.794;2022-11-20T06:32:33;16.08;;;9.43;;
63157;SDS011;49381;49.338;8.794;2022-11-20T06:34:33;16.00;;;7.40;;
63157;SDS011;49381;49.338;8.794;2022-11-20T06:36:34;14.00;;;8.20;;
63157;SDS011;49381;49.338;8.794;2022-11-20T06:38:34;13.75;;;7.57;;
63157;SDS011;49381;49.338;8.794;2022-11-20T06:40:35;14.40;;;8.02;;
63157;SDS011;49381;49.338;8.794;2022-11-20T06:42:36;15.27;;;8.88;;
63157;SDS011;49381;49.338;8.794;2022-11-20T06:44:37;15.43;;;8.32;;
63157;SDS011;49381;49.338;8.794;2022-11-20T06:46:37;16.90;;;8.27;;
63157;SDS011;49381;49.338;8.794;2022-11-20T06:48:37;14.88;;;8.02;;
63157;SDS011;49381;49.338;8.794;2022-11-20T06:50:38;13.32;;;7.72;;
63157;SDS011;49381;49.338;8.794;2022-11-20T06:52:38;13.75;;;7.88;;
63157;SDS011;49381;49.338;8.794;2022-11-20T06:54:38;12.80;;;7.55;;
63157;SDS011;49381;49.338;8.794;2022-11-20T06:56:39;17.25;;;9.02;;
63157;SDS011;49381;49.338;8.794;2022-11-20T06:58:40;14.27;;;7.97;;
63157;SDS011;49381;49.338;8.794;2022-11-20T07:00:41;13.70;;;7.80;;
63157;SDS011;49381;49.338;8.794;2022-11-20T07:02:42;15.05;;;7.70;;
63157;SDS011;49381;49.338;8.794;2022-11-20T07:04:42;14.27;;;7.18;;
63157;SDS011;49381;49.338;8.794;2022-11-20T07:06:42;15.02;;;7.90;;
63157;SDS011;49381;49.338;8.794;2022-11-20T07:08:43;13.13;;;7.60;;
63157;SDS011;49381;49.338;8.794;2022-11-20T07:10:43;13.55;;;7.25;;
63157;SDS011;49381;49.338;8.794;2022-11-20T07:12:48;16.08;;;8.07;;
63157;SDS011;49381;49.338;8.794;2022-11-20T07:14:50;15.15;;;7.90;;
63157;SDS011;49381;49.338;8.794;2022-11-20T07:16:51;15.13;;;7.63;;
63157;SDS011;49381;49.338;8.794;2022-11-20T07:18:51;14.15;;;7.32;;
63157;SDS011;49381;49.338;8.794;2022-11-20T07:20:52;15.32;;;7.45;;
63157;SDS011;49381;49.338;8.794;2022-11-20T07:22:53;12.60;;;6.72;;
63157;SDS011;49381;49.338;8.794;2022-11-20T07:24:53;14.43;;;7.38;;
63157;SDS011;49381;49.338;8.794;2022-11-20T07:26:54;10.77;;;6.07;;
63157;SDS011;49381;49.338;8.794;2022-11-20T07:28:54;15.15;;;6.55;;
63157;SDS011;49381;49.338;8.794;2022-11-20T07:30:56;11.23;;;6.05;;
63157;SDS011;49381;49.338;8.794;2022-11-20T07:32:56;10.88;;;6.40;;
63157;SDS011;49381;49.338;8.794;2022-11-20T07:34:57;13.20;;;6.40;;
63157;SDS011;49381;49.338;8.794;2022-11-20T07:36:57;13.02;;;7.07;;
63157;SDS011;49381;49.338;8.794;2022-11-20T07:38:57;10.73;;;6.50;;
63157;SDS011;49381;49.338;8.794;2022-11-20T07:40:58;12.98;;;6.72;;
63157;SDS011;49381;49.338;8.794;2022-11-20T07:42:58;11.40;;;6.22;;
63157;SDS011;49381;49.338;8.794;2022-11-20T07:44:58;12.10;;;7.43;;
63157;SDS011;49381;49.338;8.794;2022-11-20T07:47:00;14.07;;;6.85;;
63157;SDS011;49381;49.338;8.794;2022-11-20T07:49:00;12.32;;;7.32;;
63157;SDS011;49381;49.338;8.794;2022-11-20T07:51:01;14.13;;;6.68;;
63157;SDS011;49381;49.338;8.794;2022-11-20T07:53:02;12.77;;;7.07;;
63157;SDS011;49381;49.338;8.794;2022-11-20T07:55:03;10.02;;;5.93;;
63157;SDS011;49381;49.338;8.794;2022-11-20T07:57:04;10.13;;;5.68;;
63157;SDS011;49381;49.338;8.794;2022-11-20T07:59:04;16.83;;;9.20;;
63157;SDS011;49381;49.338;8.794;2022-11-20T08:01:05;12.50;;;6.88;;
63157;SDS011;49381;49.338;8.794;2022-11-20T08:03:07;10.25;;;5.90;;
63157;SDS011;49381;49.338;8.794;2022-11-20T08:05:08;11.10;;;5.65;;
63157;SDS011;49381;49.338;8.794;2022-11-20T08:07:09;8.63;;;5.18;;
63157;SDS011;49381;49.338;8.794;2022-11-20T08:09:09;10.57;;;5.95;;
63157;SDS011;49381;49.338;8.794;2022-11-20T08:11:09;10.38;;;5.15;;
63157;SDS011;49381;49.338;8.794;2022-11-20T08:13:10;8.40;;;5.30;;
63157;SDS011;49381;49.338;8.794;2022-11-20T08:15:10;12.75;;;7.53;;
63157;SDS011;49381;49.338;8.794;2022-11-20T08:17:11;11.60;;;6.45;;
63157;SDS011;49381;49.338;8.794;2022-11-20T08:19:12;12.50;;;7.63;;
63157;SDS011;49381;49.338;8.794;2022-11-20T08:21:14;8.38;;;5.70;;
63157;SDS011;49381;49.338;8.794;2022-11-20T08:23:14;9.32;;;5.38;;
63157;SDS011;49381;49.338;8.794;2022-11-20T08:25:14;8.27;;;4.90;;
63157;SDS011;49381;49.338;8.794;2022-11-20T08:27:15;9.52;;;5.30;;
63157;SDS011;49381;49.338;8.794;2022-11-20T08:29:15;9.65;;;5.38;;
63157;SDS011;49381;49.338;8.794;2022-11-20T08:31:15;7.82;;;4.85;;
63157;SDS011;49381;49.338;8.794;2022-11-20T08:33:16;9.05;;;5.75;;
63157;SDS011;49381;49.338;8.794;2022-11-20T08:35:17;10.02;;;5.15;;
63157;SDS011;49381;49.338;8.794;2022-11-20T08:37:18;9.13;;;5.10;;
63157;SDS011;49381;49.338;8.794;2022-11-20T08:39:18;8.55;;;4.95;;
63157;SDS011;49381;49.338;8.794;2022-11-20T08:41:18;10.63;;;5.68;;
63157;SDS011;49381;49.338;8.794;2022-11-20T08:43:19;8.07;;;4.47;;
63157;SDS011;49381;49.338;8.794;2022-11-20T08:45:19;9.23;;;4.95;;
63157;SDS011;49381;49.338;8.794;2022-11-20T08:47:19;8.30;;;4.80;;
63157;SDS011;49381;49.338;8.794;2022-11-20T08:49:20;6.82;;;4.32;;
63157;SDS011;49381;49.338;8.794;2022-11-20T08:51:21;10.02;;;5.13;;
63157;SDS011;49381;49.338;8.794;2022-11-20T08:53:22;7.90;;;5.10;;
63157;SDS011;49381;49.338;8.794;2022-11-20T08:55:22;9.07;;;4.63;;
63157;SDS011;49381;49.338;8.794;2022-11-20T08:57:22;8.52;;;4.88;;
63157;SDS011;49381;49.338;8.794;2022-11-20T08:59:23;9.73;;;5.10;;
63157;SDS011;49381;49.338;8.794;2022-11-20T09:01:23;7.63;;;4.88;;
63157;SDS011;49381;49.338;8.794;2022-11-20T09:03:23;10.23;;;5.65;;
63157;SDS011;49381;49.338;8.794;2022-11-20T09:05:24;8.25;;;5.15;;
63157;SDS011;49381;49.338;8.794;2022-11-20T09:07:25;8.18;;;4.43;;
63157;SDS011;49381;49.338;8.794;2022-11-20T09:09:26;8.82;;;4.30;;
63157;SDS011;49381;49.338;8.794;2022-11-20T09:11:26;8.85;;;5.25;;
63157;SDS011;49381;49.338;8.794;2022-11-20T09:13:27;9.40;;;4.90;;
63157;SDS011;49381;49.338;8.794;2022-11-20T09:15:28;7.80;;;5.00;;
63157;SDS011;49381;49.338;8.794;2022-11-20T09:17:28;11.07;;;5.35;;
63157;SDS011;49381;49.338;8.794;2022-11-20T09:19:29;10.95;;;4.90;;
63157;SDS011;49381;49.338;8.794;2022-11-20T09:21:29;12.02;;;5.30;;
63157;SDS011;49381;49.338;8.794;2022-11-20T09:23:32;10.32;;;5.30;;
63157;SDS011;49381;49.338;8.794;2022-11-20T09:25:33;10.02;;;5.93;;
63157;SDS011;49381;49.338;8.794;2022-11-20T09:27:34;9.50;;;5.50;;
63157;SDS011;49381;49.338;8.794;2022-11-20T09:29:34;9.50;;;5.28;;
63157;SDS011;49381;49.338;8.794;2022-11-20T09:31:34;8.65;;;4.90;;
63157;SDS011;49381;49.338;8.794;2022-11-20T09:33:35;7.07;;;4.55;;
63157;SDS011;49381;49.338;8.794;2022-11-20T09:35:35;8.02;;;5.45;;
63157;SDS011;49381;49.338;8.794;2022-11-20T09:37:36;10.02;;;5.43;;
63157;SDS011;49381;49.338;8.794;2022-11-20T09:39:37;10.38;;;4.90;;
63157;SDS011;49381;49.338;8.794;2022-11-20T09:41:47;7.80;;;4.68;;
63157;SDS011;49381;49.338;8.794;2022-11-20T09:43:58;8.60;;;5.68;;
63157;SDS011;49381;49.338;8.794;2022-11-20T09:46:06;9.32;;;5.22;;
63157;SDS011;49381;49.338;8.794;2022-11-20T09:48:16;6.82;;;4.72;;
63157;SDS011;49381;49.338;8.794;2022-11-20T09:50:24;9.45;;;5.75;;
63157;SDS011;49381;49.338;8.794;2022-11-20T09:52:31;9.52;;;5.00;;
63157;SDS011;49381;49.338;8.794;2022-11-20T09:54:39;10.20;;;4.85;;
63157;SDS011;49381;49.338;8.794;2022-11-20T09:56:41;8.75;;;5.85;;
63157;SDS011;49381;49.338;8.794;2022-11-20T09:58:43;9.48;;;5.60;;
63157;SDS011;49381;49.338;8.794;2022-11-20T10:00:46;8.43;;;5.00;;
63157;SDS011;49381;49.338;8.794;2022-11-20T10:02:48;8.85;;;5.20;;
63157;SDS011;49381;49.338;8.794;2022-11-20T10:04:55;8.68;;;5.88;;
63157;SDS011;49381;49.338;8.794;2022-11-20T10:07:02;7.13;;;4.82;;
63157;SDS011;49381;49.338;8.794;2022-11-20T10:09:14;8.45;;;4.85;;
63157;SDS011;49381;49.338;8.794;2022-11-20T10:11:24;8.93;;;4.93;;
63157;SDS011;49381;49.338;8.794;2022-11-20T10:13:34;8.23;;;4.80;;
63157;SDS011;49381;49.338;8.794;2022-11-20T10:15:42;7.90;;;4.50;;
63157;SDS011;49381;49.338;8.794;2022-11-20T10:17:55;7.93;;;5.28;;
63157;SDS011;49381;49.338;8.794;2022-11-20T10:20:10;8.82;;;4.90;;
63157;SDS011;49381;49.338;8.794;2022-11-20T10:22:19;6.45;;;4.20;;
63157;SDS011;49381;49.338;8.794;2022-11-20T10:24:34;9.27;;;4.75;;
63157;SDS011;49381;49.338;8.794;2022-11-20T10:26:44;9.55;;;4.75;;
63157;SDS011;49381;49.338;8.794;2022-11-20T10:29:01;9.70;;;4.85;;
63157;SDS011;49381;49.338;8.794;2022-11-20T10:31:10;8.32;;;5.05;;
63157;SDS011;49381;49.338;8.794;2022-11-20T10:33:16;6.20;;;4.03;;
63157;SDS011;49381;49.338;8.794;2022-11-20T10:35:20;6.43;;;4.28;;
63157;SDS011;49381;49.338;8.794;2022-11-20T10:37:22;8.57;;;4.93;;
63157;SDS011;49381;49.338;8.794;2022-11-20T10:39:26;13.07;;;6.95;;
63157;SDS011;49381;49.338;8.794;2022-11-20T10:41:34;8.90;;;4.72;;
63157;SDS011;49381;49.338;8.794;2022-11-20T10:43:41;7.32;;;4.70;;
63157;SDS011;49381;49.338;8.794;2022-11-20T10:45:49;9.95;;;6.70;;
63157;SDS011;49381;49.338;8.794;2022-11-20T10:47:59;6.72;;;4.57;;
63157;SDS011;49381;49.338;8.794;2022-11-20T10:50:12;7.50;;;5.07;;
63157;SDS011;49381;49.338;8.794;2022-11-20T10:52:19;8.18;;;5.50;;
63157;SDS011;49381;49.338;8.794;2022-11-20T10:54:29;6.85;;;4.47;;
63157;SDS011;49381;49.338;8.794;2022-11-20T10:56:38;6.20;;;3.88;;
63157;SDS011;49381;49.338;8.794;2022-11-20T10:58:43;6.40;;;3.70;;
63157;SDS011;49381;49.338;8.794;2022-11-20T11:00:49;6.72;;;4.03;;
63157;SDS011;49381;49.338;8.794;2022-11-20T11:02:50;5.00;;;3.05;;
63157;SDS011;49381;49.338;8.794;2022-11-20T11:04:52;5.78;;;4.15;;
63157;SDS011;49381;49.338;8.794;2022-11-20T11:06:53;6.15;;;3.65;;
63157;SDS011;49381;49.338;8.794;2022-11-20T11:08:59;7.95;;;3.13;;
63157;SDS011;49381;49.338;8.794;2022-11-20T11:11:07;5.55;;;2.97;;
63157;SDS011;49381;49.338;8.794;2022-11-20T11:13:19;5.63;;;3.20;;
63157;SDS011;49381;49.338;8.794;2022-11-20T11:15:29;4.90;;;3.30;;
63157;SDS011;49381;49.338;8.794;2022-11-20T11:17:36;5.82;;;3.30;;
63157;SDS011;49381;49.338;8.794;2022-11-20T11:19:56;7.05;;;3.65;;
63157;SDS011;49381;49.338;8.794;2022-11-20T11:21:57;4.43;;;3.03;;
63157;SDS011;49381;49.338;8.794;2022-11-20T11:23:59;5.30;;;3.15;;
63157;SDS011;49381;49.338;8.794;2022-11-20T11:26:01;6.30;;;3.83;;
63157;SDS011;49381;49.338;8.794;2022-11-20T11:28:03;5.65;;;3.50;;
63157;SDS011;49381;49.338;8.794;2022-11-20T11:30:11;7.22;;;4.60;;
63157;SDS011;49381;49.338;8.794;2022-11-20T11:32:17;7.95;;;4.00;;
63157;SDS011;49381;49.338;8.794;2022-11-20T11:34:19;6.53;;;3.70;;
63157;SDS011;49381;49.338;8.794;2022-11-20T11:36:20;5.45;;;4.00;;
63157;SDS011;49381;49.338;8.794;2022-11-20T11:38:23;6.78;;;4.07;;
63157;SDS011;49381;49.338;8.794;2022-11-20T11:40:29;7.80;;;3.78;;
63157;SDS011;49381;49.338;8.794;2022-11-20T11:42:32;6.30;;;4.00;;
63157;SDS011;49381;49.338;8.794;2022-11-20T11:44:33;7.68;;;3.83;;
63157;SDS011;49381;49.338;8.794;2022-11-20T11:46:34;6.95;;;4.55;;
63157;SDS011;49381;49.338;8.794;2022-11-20T11:48:37;8.65;;;4.13;;
63157;SDS011;49381;49.338;8.794;2022-11-20T11:50:38;7.35;;;4.55;;
63157;SDS011;49381;49.338;8.794;2022-11-20T11:52:50;5.65;;;3.90;;
63157;SDS011;49381;49.338;8.794;2022-11-20T11:54:56;5.13;;;3.60;;
63157;SDS011;49381;49.338;8.794;2022-11-20T11:57:00;6.15;;;3.40;;
63157;SDS011;49381;49.338;8.794;2022-11-20T11:59:04;5.20;;;3.05;;
63157;SDS011;49381;49.338;8.794;2022-11-20T12:01:11;7.28;;;3.30;;
63157;SDS011;49381;49.338;8.794;2022-11-20T12:03:27;4.97;;;2.65;;
63157;SDS011;49381;49.338;8.794;2022-11-20T12:05:31;6.85;;;3.50;;
63157;SDS011;49381;49.338;8.794;2022-11-20T12:07:38;5.97;;;3.45;;
63157;SDS011;49381;49.338;8.794;2022-11-20T12:09:42;10.73;;;5.00;;